Evangelistas — CBEN — position and weather

sailwx.info

Track history (hours):
 
Tides and Currents Weather Stations Pressure Air Temp Water Temp Dewpoint Dewpoint Depression Visibility Wind Speed Wind Dir Waves Ship Positions

Evangelistas

Last reported at 2017-Oct-21 17:52 UTC. Time now 2017-Nov-19 17:46 UTC.
Position S 33°02' W 071°47'.
Warning: this ship's position is 28 days out of date.

Length 123 m; draft 5 m.

MMSI: 725016600.

Date/timePositionNaut miles runAvg speedWind from/ knotsBaromVisibWave heightAir tempDewpointWater temp
2017-Oct-21 17:52S 33°02' W 071°47'3 7.3
2017-Oct-21 17:30S 33°00' W 071°45'4 8.9
2017-Oct-21 17:00S 32°60' W 071°40'3 6.3
2017-Oct-21 16:30S 33°01' W 071°36'0 0.4
2017-Oct-21 15:51S 33°01' W 071°36'2 4.0
2017-Oct-21 15:22S 32°60' W 071°35'2 5.7
2017-Oct-21 15:00S 32°58' W 071°35'1 1.2
2017-Oct-21 14:30S 32°58' W 071°35'0 0.3
2017-Oct-21 13:30S 32°58' W 071°36'4 8.3
2017-Oct-21 13:00S 33°02' W 071°37'1 0.0
2017-Oct-20 21:45S 33°02' W 071°37'  
2017-Oct-15 21:01S 33°01' W 071°35'0 0.0
2017-Oct-15 20:46S 33°01' W 071°35'0 0.0
2017-Oct-15 20:16S 33°01' W 071°35'0 0.0
2017-Oct-15 19:52S 33°01' W 071°35'0 0.0
2017-Oct-15 19:22S 33°01' W 071°35'0 0.0
2017-Oct-15 18:55S 33°01' W 071°35'0 0.0
2017-Oct-15 18:28S 33°01' W 071°35'0 0.0
2017-Oct-15 17:55S 33°01' W 071°35'0 0.0
2017-Oct-15 17:28S 33°01' W 071°35'0 0.1
2017-Oct-15 16:55S 33°01' W 071°35'0 0.0
2017-Oct-15 16:07S 33°01' W 071°35'0 0.1
2017-Oct-15 15:58S 33°01' W 071°35'0 0.0
2017-Oct-15 11:34S 33°01' W 071°35'0 0.6
2017-Oct-15 11:26S 33°01' W 071°35'1 3.5
2017-Oct-15 11:00S 33°01' W 071°37'4 7.2
2017-Oct-15 10:30S 32°60' W 071°41'  
Track history (hours):
 
Tides and Currents Weather Stations Pressure Air Temp Water Temp Dewpoint Dewpoint Depression Visibility Wind Speed Wind Dir Waves Ship Positions

Evangelistas

Last reported at 2017-Oct-21 17:52 UTC. Time now 2017-Nov-19 17:46 UTC.
Position S 33°02' W 071°47'.
Warning: this ship's position is 28 days out of date.

Length 123 m; draft 5 m.

MMSI: 725016600.

Date/timePositionNaut miles runAvg speedWind from/ knotsBaromVisibWave heightAir tempDewpointWater temp
2017-Oct-21 17:52S 33°02' W 071°47'3 7.3
2017-Oct-21 17:30S 33°00' W 071°45'4 8.9
2017-Oct-21 17:00S 32°60' W 071°40'3 6.3
2017-Oct-21 16:30S 33°01' W 071°36'0 0.4
2017-Oct-21 15:51S 33°01' W 071°36'2 4.0
2017-Oct-21 15:22S 32°60' W 071°35'2 5.7
2017-Oct-21 15:00S 32°58' W 071°35'1 1.2
2017-Oct-21 14:30S 32°58' W 071°35'0 0.3
2017-Oct-21 13:30S 32°58' W 071°36'4 8.3
2017-Oct-21 13:00S 33°02' W 071°37'1 0.0
2017-Oct-20 21:45S 33°02' W 071°37'  
2017-Oct-15 21:01S 33°01' W 071°35'0 0.0
2017-Oct-15 20:46S 33°01' W 071°35'0 0.0
2017-Oct-15 20:16S 33°01' W 071°35'0 0.0
2017-Oct-15 19:52S 33°01' W 071°35'0 0.0
2017-Oct-15 19:22S 33°01' W 071°35'0 0.0
2017-Oct-15 18:55S 33°01' W 071°35'0 0.0
2017-Oct-15 18:28S 33°01' W 071°35'0 0.0
2017-Oct-15 17:55S 33°01' W 071°35'0 0.0
2017-Oct-15 17:28S 33°01' W 071°35'0 0.1
2017-Oct-15 16:55S 33°01' W 071°35'0 0.0
2017-Oct-15 16:07S 33°01' W 071°35'0 0.1
2017-Oct-15 15:58S 33°01' W 071°35'0 0.0
2017-Oct-15 11:34S 33°01' W 071°35'0 0.6
2017-Oct-15 11:26S 33°01' W 071°35'1 3.5
2017-Oct-15 11:00S 33°01' W 071°37'4 7.2
2017-Oct-15 10:30S 32°60' W 071°41'  

Dump ship's entire track history